sensor_id;sensor_type;location;lat;lon;timestamp;P1;durP1;ratioP1;P2;durP2;ratioP2
1829;SDS011;914;48.118;11.600;2023-03-05T00:01:17;26.40;;;17.80;;
1829;SDS011;914;48.118;11.600;2023-03-05T00:03:47;27.07;;;18.20;;
1829;SDS011;914;48.118;11.600;2023-03-05T00:06:12;31.83;;;19.30;;
1829;SDS011;914;48.118;11.600;2023-03-05T00:08:38;29.73;;;18.73;;
1829;SDS011;914;48.118;11.600;2023-03-05T00:11:05;28.27;;;19.47;;
1829;SDS011;914;48.118;11.600;2023-03-05T00:13:32;28.13;;;19.23;;
1829;SDS011;914;48.118;11.600;2023-03-05T00:16:01;28.50;;;18.83;;
1829;SDS011;914;48.118;11.600;2023-03-05T00:18:30;27.70;;;16.70;;
1829;SDS011;914;48.118;11.600;2023-03-05T00:20:56;29.00;;;18.90;;
1829;SDS011;914;48.118;11.600;2023-03-05T00:23:21;29.63;;;18.90;;
1829;SDS011;914;48.118;11.600;2023-03-05T00:25:47;27.97;;;18.00;;
1829;SDS011;914;48.118;11.600;2023-03-05T00:28:13;29.87;;;18.90;;
1829;SDS011;914;48.118;11.600;2023-03-05T00:30:38;29.37;;;18.43;;
1829;SDS011;914;48.118;11.600;2023-03-05T00:33:05;28.50;;;18.50;;
1829;SDS011;914;48.118;11.600;2023-03-05T00:35:31;24.57;;;17.43;;
1829;SDS011;914;48.118;11.600;2023-03-05T00:38:02;29.37;;;19.57;;
1829;SDS011;914;48.118;11.600;2023-03-05T00:40:28;27.43;;;17.90;;
1829;SDS011;914;48.118;11.600;2023-03-05T00:42:53;27.07;;;17.23;;
1829;SDS011;914;48.118;11.600;2023-03-05T00:45:19;27.80;;;18.20;;
1829;SDS011;914;48.118;11.600;2023-03-05T00:47:44;28.23;;;18.30;;
1829;SDS011;914;48.118;11.600;2023-03-05T00:50:10;27.73;;;17.70;;
1829;SDS011;914;48.118;11.600;2023-03-05T00:52:36;26.37;;;17.70;;
1829;SDS011;914;48.118;11.600;2023-03-05T00:55:02;25.07;;;17.90;;
1829;SDS011;914;48.118;11.600;2023-03-05T00:57:27;27.97;;;18.33;;
1829;SDS011;914;48.118;11.600;2023-03-05T00:59:53;28.60;;;17.73;;
1829;SDS011;914;48.118;11.600;2023-03-05T01:02:19;25.80;;;18.63;;
1829;SDS011;914;48.118;11.600;2023-03-05T01:04:44;25.83;;;17.33;;
1829;SDS011;914;48.118;11.600;2023-03-05T01:07:11;30.60;;;18.03;;
1829;SDS011;914;48.118;11.600;2023-03-05T01:09:37;28.80;;;17.70;;
1829;SDS011;914;48.118;11.600;2023-03-05T01:12:03;27.63;;;17.80;;
1829;SDS011;914;48.118;11.600;2023-03-05T01:14:28;27.47;;;17.43;;
1829;SDS011;914;48.118;11.600;2023-03-05T01:16:54;27.47;;;16.37;;
1829;SDS011;914;48.118;11.600;2023-03-05T01:19:23;27.87;;;18.20;;
1829;SDS011;914;48.118;11.600;2023-03-05T01:21:48;28.40;;;17.13;;
1829;SDS011;914;48.118;11.600;2023-03-05T01:24:14;28.77;;;18.07;;
1829;SDS011;914;48.118;11.600;2023-03-05T01:26:40;27.33;;;17.27;;
1829;SDS011;914;48.118;11.600;2023-03-05T01:29:05;25.60;;;17.23;;
1829;SDS011;914;48.118;11.600;2023-03-05T01:31:31;28.93;;;17.77;;
1829;SDS011;914;48.118;11.600;2023-03-05T01:33:57;28.40;;;17.10;;
1829;SDS011;914;48.118;11.600;2023-03-05T01:36:24;26.57;;;17.37;;
1829;SDS011;914;48.118;11.600;2023-03-05T01:38:50;28.07;;;16.83;;
1829;SDS011;914;48.118;11.600;2023-03-05T01:41:16;25.63;;;16.87;;
1829;SDS011;914;48.118;11.600;2023-03-05T01:43:44;24.83;;;16.27;;
1829;SDS011;914;48.118;11.600;2023-03-05T01:48:47;28.73;;;17.90;;
1829;SDS011;914;48.118;11.600;2023-03-05T01:51:16;30.27;;;17.33;;
1829;SDS011;914;48.118;11.600;2023-03-05T01:53:44;27.90;;;17.00;;
1829;SDS011;914;48.118;11.600;2023-03-05T01:56:11;26.47;;;16.80;;
1829;SDS011;914;48.118;11.600;2023-03-05T01:58:37;29.87;;;17.77;;
1829;SDS011;914;48.118;11.600;2023-03-05T02:01:04;23.83;;;16.43;;
1829;SDS011;914;48.118;11.600;2023-03-05T02:03:29;25.70;;;16.97;;
1829;SDS011;914;48.118;11.600;2023-03-05T02:05:57;24.67;;;16.40;;
1829;SDS011;914;48.118;11.600;2023-03-05T02:08:23;27.70;;;16.90;;
1829;SDS011;914;48.118;11.600;2023-03-05T02:10:50;28.70;;;16.83;;
1829;SDS011;914;48.118;11.600;2023-03-05T02:13:20;27.70;;;17.03;;
1829;SDS011;914;48.118;11.600;2023-03-05T02:15:51;25.27;;;16.43;;
1829;SDS011;914;48.118;11.600;2023-03-05T02:18:18;27.67;;;17.73;;
1829;SDS011;914;48.118;11.600;2023-03-05T02:23:13;27.90;;;16.90;;
1829;SDS011;914;48.118;11.600;2023-03-05T02:25:39;26.87;;;16.93;;
1829;SDS011;914;48.118;11.600;2023-03-05T02:28:07;26.30;;;17.00;;
1829;SDS011;914;48.118;11.600;2023-03-05T02:30:47;25.80;;;16.10;;
1829;SDS011;914;48.118;11.600;2023-03-05T02:33:14;23.93;;;16.20;;
1829;SDS011;914;48.118;11.600;2023-03-05T02:35:41;26.33;;;17.07;;
1829;SDS011;914;48.118;11.600;2023-03-05T02:38:08;25.57;;;16.20;;
1829;SDS011;914;48.118;11.600;2023-03-05T02:40:35;26.07;;;16.47;;
1829;SDS011;914;48.118;11.600;2023-03-05T02:43:00;26.07;;;16.47;;
1829;SDS011;914;48.118;11.600;2023-03-05T02:45:26;27.73;;;17.57;;
1829;SDS011;914;48.118;11.600;2023-03-05T02:47:52;23.87;;;16.50;;
1829;SDS011;914;48.118;11.600;2023-03-05T02:50:19;27.50;;;17.40;;
1829;SDS011;914;48.118;11.600;2023-03-05T02:52:45;26.13;;;16.23;;
1829;SDS011;914;48.118;11.600;2023-03-05T02:55:11;25.90;;;16.33;;
1829;SDS011;914;48.118;11.600;2023-03-05T02:57:37;26.33;;;16.90;;
1829;SDS011;914;48.118;11.600;2023-03-05T03:00:03;27.83;;;16.33;;
1829;SDS011;914;48.118;11.600;2023-03-05T03:02:29;30.40;;;17.13;;
1829;SDS011;914;48.118;11.600;2023-03-05T03:04:55;26.33;;;16.77;;
1829;SDS011;914;48.118;11.600;2023-03-05T03:07:21;28.50;;;17.17;;
1829;SDS011;914;48.118;11.600;2023-03-05T03:09:47;27.70;;;17.30;;
1829;SDS011;914;48.118;11.600;2023-03-05T03:12:13;26.20;;;16.60;;
1829;SDS011;914;48.118;11.600;2023-03-05T03:14:39;28.87;;;18.17;;
1829;SDS011;914;48.118;11.600;2023-03-05T03:17:10;25.67;;;15.67;;
1829;SDS011;914;48.118;11.600;2023-03-05T03:19:37;30.20;;;17.53;;
1829;SDS011;914;48.118;11.600;2023-03-05T03:22:04;27.90;;;17.23;;
1829;SDS011;914;48.118;11.600;2023-03-05T03:24:31;27.93;;;17.80;;
1829;SDS011;914;48.118;11.600;2023-03-05T03:26:57;27.37;;;17.90;;
1829;SDS011;914;48.118;11.600;2023-03-05T03:29:23;29.90;;;18.87;;
1829;SDS011;914;48.118;11.600;2023-03-05T03:31:49;30.57;;;18.33;;
1829;SDS011;914;48.118;11.600;2023-03-05T03:34:15;29.57;;;18.00;;
1829;SDS011;914;48.118;11.600;2023-03-05T03:36:44;32.13;;;19.43;;
1829;SDS011;914;48.118;11.600;2023-03-05T03:39:14;29.03;;;18.10;;
1829;SDS011;914;48.118;11.600;2023-03-05T03:41:41;29.73;;;18.90;;
1829;SDS011;914;48.118;11.600;2023-03-05T03:44:08;29.03;;;18.70;;
1829;SDS011;914;48.118;11.600;2023-03-05T03:46:36;30.17;;;18.87;;
1829;SDS011;914;48.118;11.600;2023-03-05T03:49:02;31.40;;;19.87;;
1829;SDS011;914;48.118;11.600;2023-03-05T03:51:29;33.87;;;20.20;;
1829;SDS011;914;48.118;11.600;2023-03-05T03:53:55;28.53;;;18.40;;
1829;SDS011;914;48.118;11.600;2023-03-05T03:56:20;33.60;;;18.03;;
1829;SDS011;914;48.118;11.600;2023-03-05T03:58:48;31.77;;;19.47;;
1829;SDS011;914;48.118;11.600;2023-03-05T04:01:15;29.07;;;18.80;;
1829;SDS011;914;48.118;11.600;2023-03-05T04:03:41;32.00;;;19.43;;
1829;SDS011;914;48.118;11.600;2023-03-05T04:06:06;29.00;;;17.70;;
1829;SDS011;914;48.118;11.600;2023-03-05T04:08:32;33.83;;;19.83;;
1829;SDS011;914;48.118;11.600;2023-03-05T04:10:59;30.50;;;18.47;;
1829;SDS011;914;48.118;11.600;2023-03-05T04:13:26;29.00;;;17.60;;
1829;SDS011;914;48.118;11.600;2023-03-05T04:15:51;29.63;;;18.73;;
1829;SDS011;914;48.118;11.600;2023-03-05T04:18:17;32.97;;;19.20;;
1829;SDS011;914;48.118;11.600;2023-03-05T04:20:43;30.87;;;18.60;;
1829;SDS011;914;48.118;11.600;2023-03-05T04:23:09;32.00;;;19.10;;
1829;SDS011;914;48.118;11.600;2023-03-05T04:25:34;30.73;;;18.70;;
1829;SDS011;914;48.118;11.600;2023-03-05T04:28:00;32.10;;;19.43;;
1829;SDS011;914;48.118;11.600;2023-03-05T04:30:28;28.50;;;17.40;;
1829;SDS011;914;48.118;11.600;2023-03-05T04:32:55;26.50;;;16.97;;
1829;SDS011;914;48.118;11.600;2023-03-05T04:35:21;28.93;;;17.17;;
1829;SDS011;914;48.118;11.600;2023-03-05T04:37:46;29.80;;;18.00;;
1829;SDS011;914;48.118;11.600;2023-03-05T04:40:12;28.40;;;17.67;;
1829;SDS011;914;48.118;11.600;2023-03-05T04:42:38;27.47;;;17.70;;
1829;SDS011;914;48.118;11.600;2023-03-05T04:45:04;30.00;;;18.63;;
1829;SDS011;914;48.118;11.600;2023-03-05T04:47:31;29.73;;;18.17;;
1829;SDS011;914;48.118;11.600;2023-03-05T04:49:57;33.97;;;19.17;;
1829;SDS011;914;48.118;11.600;2023-03-05T04:52:23;32.57;;;18.53;;
1829;SDS011;914;48.118;11.600;2023-03-05T04:54:48;29.17;;;17.57;;
1829;SDS011;914;48.118;11.600;2023-03-05T04:57:29;31.77;;;18.03;;
1829;SDS011;914;48.118;11.600;2023-03-05T04:59:54;27.30;;;16.60;;
1829;SDS011;914;48.118;11.600;2023-03-05T05:02:20;26.43;;;16.63;;
1829;SDS011;914;48.118;11.600;2023-03-05T05:04:46;26.33;;;16.60;;
1829;SDS011;914;48.118;11.600;2023-03-05T05:07:11;28.13;;;17.27;;
1829;SDS011;914;48.118;11.600;2023-03-05T05:09:37;30.07;;;18.47;;
1829;SDS011;914;48.118;11.600;2023-03-05T05:12:05;28.17;;;17.30;;
1829;SDS011;914;48.118;11.600;2023-03-05T05:14:32;28.07;;;17.47;;
1829;SDS011;914;48.118;11.600;2023-03-05T05:16:58;28.67;;;17.67;;
1829;SDS011;914;48.118;11.600;2023-03-05T05:19:24;32.63;;;18.23;;
1829;SDS011;914;48.118;11.600;2023-03-05T05:21:50;28.33;;;17.93;;
1829;SDS011;914;48.118;11.600;2023-03-05T05:24:15;30.67;;;17.60;;
1829;SDS011;914;48.118;11.600;2023-03-05T05:26:41;29.93;;;19.03;;
1829;SDS011;914;48.118;11.600;2023-03-05T05:29:06;31.53;;;19.20;;
1829;SDS011;914;48.118;11.600;2023-03-05T05:31:32;31.00;;;18.07;;
1829;SDS011;914;48.118;11.600;2023-03-05T05:33:58;30.00;;;18.97;;
1829;SDS011;914;48.118;11.600;2023-03-05T05:36:23;28.87;;;18.17;;
1829;SDS011;914;48.118;11.600;2023-03-05T05:38:49;26.50;;;17.90;;
1829;SDS011;914;48.118;11.600;2023-03-05T05:41:15;30.57;;;18.27;;
1829;SDS011;914;48.118;11.600;2023-03-05T05:43:42;27.63;;;17.77;;
1829;SDS011;914;48.118;11.600;2023-03-05T05:46:10;27.33;;;16.93;;
1829;SDS011;914;48.118;11.600;2023-03-05T05:48:38;28.93;;;17.83;;
1829;SDS011;914;48.118;11.600;2023-03-05T05:51:09;26.37;;;17.67;;
1829;SDS011;914;48.118;11.600;2023-03-05T05:53:37;28.73;;;17.70;;
1829;SDS011;914;48.118;11.600;2023-03-05T05:56:03;28.70;;;18.23;;
1829;SDS011;914;48.118;11.600;2023-03-05T05:58:30;27.47;;;17.47;;
1829;SDS011;914;48.118;11.600;2023-03-05T06:00:57;27.37;;;16.87;;
1829;SDS011;914;48.118;11.600;2023-03-05T06:03:22;28.00;;;17.67;;
1829;SDS011;914;48.118;11.600;2023-03-05T06:05:48;30.00;;;17.13;;
1829;SDS011;914;48.118;11.600;2023-03-05T06:08:15;30.90;;;17.67;;
1829;SDS011;914;48.118;11.600;2023-03-05T06:10:41;27.87;;;17.67;;
1829;SDS011;914;48.118;11.600;2023-03-05T06:13:07;30.23;;;16.90;;
1829;SDS011;914;48.118;11.600;2023-03-05T06:15:32;24.77;;;16.30;;
1829;SDS011;914;48.118;11.600;2023-03-05T06:17:58;27.40;;;16.87;;
1829;SDS011;914;48.118;11.600;2023-03-05T06:20:24;26.47;;;16.53;;
1829;SDS011;914;48.118;11.600;2023-03-05T06:22:51;26.33;;;16.87;;
1829;SDS011;914;48.118;11.600;2023-03-05T06:25:17;30.53;;;18.13;;
1829;SDS011;914;48.118;11.600;2023-03-05T06:27:43;27.73;;;17.33;;
1829;SDS011;914;48.118;11.600;2023-03-05T06:30:09;29.60;;;17.10;;
1829;SDS011;914;48.118;11.600;2023-03-05T06:32:35;28.00;;;17.90;;
1829;SDS011;914;48.118;11.600;2023-03-05T06:35:01;25.33;;;16.83;;
1829;SDS011;914;48.118;11.600;2023-03-05T06:37:27;29.73;;;16.77;;
1829;SDS011;914;48.118;11.600;2023-03-05T06:39:53;29.30;;;17.40;;
1829;SDS011;914;48.118;11.600;2023-03-05T06:42:18;32.60;;;17.57;;
1829;SDS011;914;48.118;11.600;2023-03-05T06:44:44;31.37;;;18.17;;
1829;SDS011;914;48.118;11.600;2023-03-05T06:47:10;25.70;;;16.80;;
1829;SDS011;914;48.118;11.600;2023-03-05T06:49:36;30.23;;;17.23;;
1829;SDS011;914;48.118;11.600;2023-03-05T06:52:03;29.27;;;17.00;;
1829;SDS011;914;48.118;11.600;2023-03-05T06:54:30;28.40;;;16.80;;
1829;SDS011;914;48.118;11.600;2023-03-05T06:56:56;27.47;;;17.40;;
1829;SDS011;914;48.118;11.600;2023-03-05T06:59:22;26.17;;;16.37;;
1829;SDS011;914;48.118;11.600;2023-03-05T07:01:48;27.10;;;16.43;;
1829;SDS011;914;48.118;11.600;2023-03-05T07:04:14;28.17;;;17.07;;
1829;SDS011;914;48.118;11.600;2023-03-05T07:06:40;29.80;;;15.70;;
1829;SDS011;914;48.118;11.600;2023-03-05T07:09:06;27.77;;;15.80;;
1829;SDS011;914;48.118;11.600;2023-03-05T07:11:34;27.27;;;16.33;;
1829;SDS011;914;48.118;11.600;2023-03-05T07:14:00;28.00;;;16.13;;
1829;SDS011;914;48.118;11.600;2023-03-05T07:16:27;27.03;;;16.63;;
1829;SDS011;914;48.118;11.600;2023-03-05T07:18:55;26.80;;;15.83;;
1829;SDS011;914;48.118;11.600;2023-03-05T07:21:23;25.77;;;16.53;;
1829;SDS011;914;48.118;11.600;2023-03-05T07:23:56;27.77;;;16.90;;
1829;SDS011;914;48.118;11.600;2023-03-05T07:26:24;25.87;;;17.10;;
1829;SDS011;914;48.118;11.600;2023-03-05T07:28:51;25.53;;;15.03;;
1829;SDS011;914;48.118;11.600;2023-03-05T07:31:20;29.93;;;15.97;;
1829;SDS011;914;48.118;11.600;2023-03-05T07:33:51;24.77;;;15.70;;
1829;SDS011;914;48.118;11.600;2023-03-05T07:36:17;29.13;;;16.97;;
1829;SDS011;914;48.118;11.600;2023-03-05T07:38:43;30.13;;;17.17;;
1829;SDS011;914;48.118;11.600;2023-03-05T07:41:11;26.57;;;16.07;;
1829;SDS011;914;48.118;11.600;2023-03-05T07:43:40;28.60;;;16.53;;
1829;SDS011;914;48.118;11.600;2023-03-05T07:46:08;24.73;;;15.40;;
1829;SDS011;914;48.118;11.600;2023-03-05T07:48:35;26.53;;;15.67;;
1829;SDS011;914;48.118;11.600;2023-03-05T07:51:05;29.03;;;16.97;;
1829;SDS011;914;48.118;11.600;2023-03-05T07:53:33;27.33;;;16.67;;
1829;SDS011;914;48.118;11.600;2023-03-05T07:55:59;28.87;;;17.80;;
1829;SDS011;914;48.118;11.600;2023-03-05T07:58:25;29.20;;;16.90;;
1829;SDS011;914;48.118;11.600;2023-03-05T08:00:51;24.87;;;16.20;;
1829;SDS011;914;48.118;11.600;2023-03-05T08:03:16;26.10;;;16.10;;
1829;SDS011;914;48.118;11.600;2023-03-05T08:05:42;26.50;;;16.70;;
1829;SDS011;914;48.118;11.600;2023-03-05T08:08:08;27.20;;;15.90;;
1829;SDS011;914;48.118;11.600;2023-03-05T08:10:35;27.60;;;16.70;;
1829;SDS011;914;48.118;11.600;2023-03-05T08:13:01;27.17;;;16.03;;
1829;SDS011;914;48.118;11.600;2023-03-05T08:15:27;27.87;;;16.23;;
1829;SDS011;914;48.118;11.600;2023-03-05T08:17:55;27.57;;;15.87;;
1829;SDS011;914;48.118;11.600;2023-03-05T08:20:21;25.73;;;15.80;;
1829;SDS011;914;48.118;11.600;2023-03-05T08:22:47;27.80;;;15.13;;
1829;SDS011;914;48.118;11.600;2023-03-05T08:25:16;28.47;;;15.63;;
1829;SDS011;914;48.118;11.600;2023-03-05T08:27:43;30.17;;;16.33;;
1829;SDS011;914;48.118;11.600;2023-03-05T08:30:11;30.50;;;17.43;;
1829;SDS011;914;48.118;11.600;2023-03-05T08:32:43;25.47;;;16.33;;
1829;SDS011;914;48.118;11.600;2023-03-05T08:35:10;27.80;;;16.50;;
1829;SDS011;914;48.118;11.600;2023-03-05T08:37:36;25.63;;;15.97;;
1829;SDS011;914;48.118;11.600;2023-03-05T08:40:02;29.10;;;16.40;;
1829;SDS011;914;48.118;11.600;2023-03-05T08:42:29;28.23;;;16.83;;
1829;SDS011;914;48.118;11.600;2023-03-05T08:44:54;31.97;;;17.07;;
1829;SDS011;914;48.118;11.600;2023-03-05T08:47:23;31.93;;;18.07;;
1829;SDS011;914;48.118;11.600;2023-03-05T08:49:53;28.60;;;16.37;;
1829;SDS011;914;48.118;11.600;2023-03-05T08:52:21;29.23;;;16.40;;
1829;SDS011;914;48.118;11.600;2023-03-05T08:54:47;26.67;;;15.53;;
1829;SDS011;914;48.118;11.600;2023-03-05T08:57:13;28.47;;;16.30;;
1829;SDS011;914;48.118;11.600;2023-03-05T08:59:39;29.73;;;17.63;;
1829;SDS011;914;48.118;11.600;2023-03-05T09:02:05;30.90;;;17.07;;
1829;SDS011;914;48.118;11.600;2023-03-05T09:04:30;27.47;;;16.57;;
1829;SDS011;914;48.118;11.600;2023-03-05T09:06:56;30.90;;;17.53;;
1829;SDS011;914;48.118;11.600;2023-03-05T09:09:22;26.47;;;16.20;;
1829;SDS011;914;48.118;11.600;2023-03-05T09:11:48;26.97;;;15.50;;
1829;SDS011;914;48.118;11.600;2023-03-05T09:14:16;27.13;;;16.50;;
1829;SDS011;914;48.118;11.600;2023-03-05T09:16:41;24.20;;;15.23;;
1829;SDS011;914;48.118;11.600;2023-03-05T09:19:07;27.57;;;16.53;;
1829;SDS011;914;48.118;11.600;2023-03-05T09:21:34;27.00;;;16.07;;
1829;SDS011;914;48.118;11.600;2023-03-05T09:24:00;26.10;;;17.20;;
1829;SDS011;914;48.118;11.600;2023-03-05T09:26:27;27.43;;;16.50;;
1829;SDS011;914;48.118;11.600;2023-03-05T09:28:53;27.13;;;16.27;;
1829;SDS011;914;48.118;11.600;2023-03-05T09:31:19;26.97;;;15.60;;
1829;SDS011;914;48.118;11.600;2023-03-05T09:33:45;24.33;;;15.33;;
1829;SDS011;914;48.118;11.600;2023-03-05T09:36:16;26.33;;;15.63;;
1829;SDS011;914;48.118;11.600;2023-03-05T09:38:44;26.27;;;16.27;;
1829;SDS011;914;48.118;11.600;2023-03-05T09:46:53;26.37;;;16.17;;
1829;SDS011;914;48.118;11.600;2023-03-05T09:49:34;27.93;;;16.23;;
1829;SDS011;914;48.118;11.600;2023-03-05T09:52:20;29.97;;;16.00;;
1829;SDS011;914;48.118;11.600;2023-03-05T09:55:09;24.50;;;15.60;;
1829;SDS011;914;48.118;11.600;2023-03-05T09:57:49;26.10;;;16.63;;
1829;SDS011;914;48.118;11.600;2023-03-05T10:02:51;26.97;;;16.47;;
1829;SDS011;914;48.118;11.600;2023-03-05T10:08:26;26.37;;;16.13;;
1829;SDS011;914;48.118;11.600;2023-03-05T10:11:01;24.63;;;15.63;;
1829;SDS011;914;48.118;11.600;2023-03-05T10:13:33;29.47;;;17.10;;
1829;SDS011;914;48.118;11.600;2023-03-05T10:19:15;28.10;;;16.30;;
1829;SDS011;914;48.118;11.600;2023-03-05T10:22:21;25.27;;;15.37;;
1829;SDS011;914;48.118;11.600;2023-03-05T10:27:45;24.93;;;15.63;;
1829;SDS011;914;48.118;11.600;2023-03-05T10:30:18;26.57;;;16.20;;
1829;SDS011;914;48.118;11.600;2023-03-05T10:40:45;27.87;;;17.37;;
1829;SDS011;914;48.118;11.600;2023-03-05T10:46:03;28.77;;;17.50;;
1829;SDS011;914;48.118;11.600;2023-03-05T10:56:22;25.43;;;15.80;;
1829;SDS011;914;48.118;11.600;2023-03-05T10:58:49;27.07;;;15.40;;
1829;SDS011;914;48.118;11.600;2023-03-05T11:03:53;27.77;;;16.33;;
1829;SDS011;914;48.118;11.600;2023-03-05T11:09:20;24.40;;;15.47;;
1829;SDS011;914;48.118;11.600;2023-03-05T11:12:04;24.57;;;15.70;;
1829;SDS011;914;48.118;11.600;2023-03-05T11:14:30;27.23;;;16.37;;
1829;SDS011;914;48.118;11.600;2023-03-05T11:16:58;29.67;;;17.23;;
1829;SDS011;914;48.118;11.600;2023-03-05T11:19:46;28.43;;;16.10;;
1829;SDS011;914;48.118;11.600;2023-03-05T11:29:57;25.87;;;16.17;;
1829;SDS011;914;48.118;11.600;2023-03-05T11:32:27;26.10;;;15.43;;
1829;SDS011;914;48.118;11.600;2023-03-05T11:34:54;25.87;;;14.73;;
1829;SDS011;914;48.118;11.600;2023-03-05T11:37:28;27.47;;;16.37;;
1829;SDS011;914;48.118;11.600;2023-03-05T11:42:49;23.83;;;14.13;;
1829;SDS011;914;48.118;11.600;2023-03-05T11:45:23;22.53;;;13.53;;
1829;SDS011;914;48.118;11.600;2023-03-05T11:47:51;23.27;;;13.80;;
1829;SDS011;914;48.118;11.600;2023-03-05T11:53:11;24.17;;;15.07;;
1829;SDS011;914;48.118;11.600;2023-03-05T11:56:15;22.70;;;14.93;;
1829;SDS011;914;48.118;11.600;2023-03-05T11:58:47;24.50;;;14.70;;
1829;SDS011;914;48.118;11.600;2023-03-05T12:01:26;25.43;;;15.43;;
1829;SDS011;914;48.118;11.600;2023-03-05T12:03:54;25.00;;;15.57;;
1829;SDS011;914;48.118;11.600;2023-03-05T12:06:35;26.90;;;15.80;;
1829;SDS011;914;48.118;11.600;2023-03-05T12:09:06;24.97;;;15.83;;
1829;SDS011;914;48.118;11.600;2023-03-05T12:11:50;23.97;;;15.37;;
1829;SDS011;914;48.118;11.600;2023-03-05T12:14:27;21.13;;;13.87;;
1829;SDS011;914;48.118;11.600;2023-03-05T12:22:35;20.40;;;13.47;;
1829;SDS011;914;48.118;11.600;2023-03-05T12:25:20;22.23;;;13.23;;
1829;SDS011;914;48.118;11.600;2023-03-05T12:27:50;17.73;;;11.47;;
1829;SDS011;914;48.118;11.600;2023-03-05T12:30:51;22.03;;;11.93;;
1829;SDS011;914;48.118;11.600;2023-03-05T12:33:36;19.43;;;11.33;;
1829;SDS011;914;48.118;11.600;2023-03-05T12:38:47;16.43;;;10.80;;
1829;SDS011;914;48.118;11.600;2023-03-05T12:46:35;16.77;;;10.40;;
1829;SDS011;914;48.118;11.600;2023-03-05T12:51:44;18.80;;;11.40;;
1829;SDS011;914;48.118;11.600;2023-03-05T12:54:29;18.93;;;12.00;;
1829;SDS011;914;48.118;11.600;2023-03-05T12:56:56;19.93;;;11.57;;
1829;SDS011;914;48.118;11.600;2023-03-05T12:59:28;19.10;;;11.63;;
1829;SDS011;914;48.118;11.600;2023-03-05T13:05:00;21.90;;;11.27;;
1829;SDS011;914;48.118;11.600;2023-03-05T13:07:32;18.20;;;11.07;;
1829;SDS011;914;48.118;11.600;2023-03-05T13:09:58;14.53;;;10.33;;
1829;SDS011;914;48.118;11.600;2023-03-05T13:12:25;14.50;;;9.87;;
1829;SDS011;914;48.118;11.600;2023-03-05T13:14:57;16.03;;;10.47;;
1829;SDS011;914;48.118;11.600;2023-03-05T13:25:43;17.33;;;11.20;;
1829;SDS011;914;48.118;11.600;2023-03-05T13:28:11;15.07;;;10.23;;
1829;SDS011;914;48.118;11.600;2023-03-05T13:30:42;14.33;;;9.83;;
1829;SDS011;914;48.118;11.600;2023-03-05T13:33:15;16.77;;;10.07;;
1829;SDS011;914;48.118;11.600;2023-03-05T13:35:44;18.23;;;10.97;;
1829;SDS011;914;48.118;11.600;2023-03-05T13:43:43;15.93;;;9.90;;
1829;SDS011;914;48.118;11.600;2023-03-05T13:46:21;15.07;;;9.87;;
1829;SDS011;914;48.118;11.600;2023-03-05T13:48:48;11.40;;;8.53;;
1829;SDS011;914;48.118;11.600;2023-03-05T13:51:13;14.17;;;9.10;;
1829;SDS011;914;48.118;11.600;2023-03-05T13:53:39;18.70;;;9.97;;
1829;SDS011;914;48.118;11.600;2023-03-05T13:56:11;15.97;;;9.97;;
1829;SDS011;914;48.118;11.600;2023-03-05T14:01:21;13.17;;;8.77;;
1829;SDS011;914;48.118;11.600;2023-03-05T14:14:18;14.83;;;9.67;;
1829;SDS011;914;48.118;11.600;2023-03-05T14:16:45;14.97;;;9.53;;
1829;SDS011;914;48.118;11.600;2023-03-05T14:19:27;12.67;;;9.23;;
1829;SDS011;914;48.118;11.600;2023-03-05T14:21:58;15.47;;;10.00;;
1829;SDS011;914;48.118;11.600;2023-03-05T14:24:25;17.87;;;10.23;;
1829;SDS011;914;48.118;11.600;2023-03-05T14:26:55;14.50;;;10.23;;
1829;SDS011;914;48.118;11.600;2023-03-05T14:29:29;18.30;;;10.93;;
1829;SDS011;914;48.118;11.600;2023-03-05T14:31:57;17.30;;;10.67;;
1829;SDS011;914;48.118;11.600;2023-03-05T14:34:41;16.33;;;10.40;;
1829;SDS011;914;48.118;11.600;2023-03-05T14:37:17;16.57;;;10.93;;
1829;SDS011;914;48.118;11.600;2023-03-05T14:39:54;17.17;;;10.17;;
1829;SDS011;914;48.118;11.600;2023-03-05T14:42:29;17.63;;;10.57;;
1829;SDS011;914;48.118;11.600;2023-03-05T14:45:09;15.53;;;10.27;;
1829;SDS011;914;48.118;11.600;2023-03-05T14:47:36;19.10;;;10.87;;
1829;SDS011;914;48.118;11.600;2023-03-05T14:50:01;15.40;;;9.60;;
1829;SDS011;914;48.118;11.600;2023-03-05T14:52:28;15.90;;;10.67;;
1829;SDS011;914;48.118;11.600;2023-03-05T14:54:57;14.97;;;9.63;;
1829;SDS011;914;48.118;11.600;2023-03-05T14:57:26;15.80;;;10.20;;
1829;SDS011;914;48.118;11.600;2023-03-05T14:59:55;14.93;;;9.60;;
1829;SDS011;914;48.118;11.600;2023-03-05T15:02:22;15.27;;;10.33;;
1829;SDS011;914;48.118;11.600;2023-03-05T15:04:49;17.67;;;11.23;;
1829;SDS011;914;48.118;11.600;2023-03-05T15:07:25;16.60;;;10.60;;
1829;SDS011;914;48.118;11.600;2023-03-05T15:09:56;18.20;;;10.80;;
1829;SDS011;914;48.118;11.600;2023-03-05T15:12:23;17.83;;;11.30;;
1829;SDS011;914;48.118;11.600;2023-03-05T15:14:54;21.53;;;11.40;;
1829;SDS011;914;48.118;11.600;2023-03-05T15:17:21;20.73;;;12.00;;
1829;SDS011;914;48.118;11.600;2023-03-05T15:19:49;17.60;;;11.40;;
1829;SDS011;914;48.118;11.600;2023-03-05T15:22:15;17.70;;;10.63;;
1829;SDS011;914;48.118;11.600;2023-03-05T15:24:41;18.43;;;11.27;;
1829;SDS011;914;48.118;11.600;2023-03-05T15:27:07;19.17;;;11.30;;
1829;SDS011;914;48.118;11.600;2023-03-05T15:29:33;18.13;;;11.80;;
1829;SDS011;914;48.118;11.600;2023-03-05T15:32:00;18.50;;;11.27;;
1829;SDS011;914;48.118;11.600;2023-03-05T15:34:28;21.43;;;13.00;;
1829;SDS011;914;48.118;11.600;2023-03-05T15:36:54;17.17;;;11.83;;
1829;SDS011;914;48.118;11.600;2023-03-05T15:39:20;20.30;;;12.53;;
1829;SDS011;914;48.118;11.600;2023-03-05T15:41:48;24.13;;;12.30;;
1829;SDS011;914;48.118;11.600;2023-03-05T15:44:15;18.33;;;11.40;;
1829;SDS011;914;48.118;11.600;2023-03-05T15:46:41;19.90;;;11.60;;
1829;SDS011;914;48.118;11.600;2023-03-05T15:49:07;22.43;;;12.57;;
1829;SDS011;914;48.118;11.600;2023-03-05T15:51:32;20.50;;;11.47;;
1829;SDS011;914;48.118;11.600;2023-03-05T15:53:58;20.20;;;11.60;;
1829;SDS011;914;48.118;11.600;2023-03-05T15:56:24;21.37;;;12.07;;
1829;SDS011;914;48.118;11.600;2023-03-05T15:58:50;19.53;;;11.20;;
1829;SDS011;914;48.118;11.600;2023-03-05T16:01:16;17.77;;;11.23;;
1829;SDS011;914;48.118;11.600;2023-03-05T16:03:45;18.37;;;12.03;;
1829;SDS011;914;48.118;11.600;2023-03-05T16:06:11;22.07;;;11.37;;
1829;SDS011;914;48.118;11.600;2023-03-05T16:08:38;23.07;;;11.57;;
1829;SDS011;914;48.118;11.600;2023-03-05T16:11:06;17.13;;;11.37;;
1829;SDS011;914;48.118;11.600;2023-03-05T16:13:32;14.00;;;9.87;;
1829;SDS011;914;48.118;11.600;2023-03-05T16:16:00;13.90;;;9.63;;
1829;SDS011;914;48.118;11.600;2023-03-05T16:18:28;13.20;;;9.70;;
1829;SDS011;914;48.118;11.600;2023-03-05T16:20:56;16.57;;;10.60;;
1829;SDS011;914;48.118;11.600;2023-03-05T16:23:24;14.60;;;9.63;;
1829;SDS011;914;48.118;11.600;2023-03-05T16:25:49;17.10;;;10.37;;
1829;SDS011;914;48.118;11.600;2023-03-05T16:28:16;15.93;;;10.20;;
1829;SDS011;914;48.118;11.600;2023-03-05T16:30:42;16.07;;;8.90;;
1829;SDS011;914;48.118;11.600;2023-03-05T16:33:08;13.03;;;8.73;;
1829;SDS011;914;48.118;11.600;2023-03-05T16:35:34;14.87;;;8.30;;
1829;SDS011;914;48.118;11.600;2023-03-05T16:38:00;10.30;;;8.10;;
1829;SDS011;914;48.118;11.600;2023-03-05T16:40:26;12.57;;;8.00;;